sensor_id;sensor_type;location;lat;lon;timestamp;P1;durP1;ratioP1;P2;durP2;ratioP2
19679;SDS011;9989;48.962;9.182;2023-05-24T00:00:55;7.40;;;3.67;;
19679;SDS011;9989;48.962;9.182;2023-05-24T00:03:21;12.23;;;4.63;;
19679;SDS011;9989;48.962;9.182;2023-05-24T00:05:46;8.10;;;4.27;;
19679;SDS011;9989;48.962;9.182;2023-05-24T00:08:12;10.23;;;4.57;;
19679;SDS011;9989;48.962;9.182;2023-05-24T00:10:39;11.73;;;4.43;;
19679;SDS011;9989;48.962;9.182;2023-05-24T00:13:05;11.93;;;4.30;;
19679;SDS011;9989;48.962;9.182;2023-05-24T00:15:31;7.60;;;3.33;;
19679;SDS011;9989;48.962;9.182;2023-05-24T00:17:57;9.93;;;4.10;;
19679;SDS011;9989;48.962;9.182;2023-05-24T00:20:23;8.70;;;4.03;;
19679;SDS011;9989;48.962;9.182;2023-05-24T00:22:48;10.93;;;4.03;;
19679;SDS011;9989;48.962;9.182;2023-05-24T00:25:14;10.87;;;3.73;;
19679;SDS011;9989;48.962;9.182;2023-05-24T00:27:39;9.73;;;3.97;;
19679;SDS011;9989;48.962;9.182;2023-05-24T00:30:05;10.47;;;4.03;;
19679;SDS011;9989;48.962;9.182;2023-05-24T00:32:31;12.10;;;5.03;;
19679;SDS011;9989;48.962;9.182;2023-05-24T00:34:57;9.80;;;4.43;;
19679;SDS011;9989;48.962;9.182;2023-05-24T00:37:22;11.40;;;5.50;;
19679;SDS011;9989;48.962;9.182;2023-05-24T00:39:48;10.13;;;4.20;;
19679;SDS011;9989;48.962;9.182;2023-05-24T00:42:13;8.60;;;4.37;;
19679;SDS011;9989;48.962;9.182;2023-05-24T00:44:40;8.97;;;3.97;;
19679;SDS011;9989;48.962;9.182;2023-05-24T00:47:06;9.80;;;4.57;;
19679;SDS011;9989;48.962;9.182;2023-05-24T00:49:32;9.63;;;4.50;;
19679;SDS011;9989;48.962;9.182;2023-05-24T00:51:58;9.20;;;3.90;;
19679;SDS011;9989;48.962;9.182;2023-05-24T00:54:24;10.00;;;4.47;;
19679;SDS011;9989;48.962;9.182;2023-05-24T00:56:50;9.47;;;3.73;;
19679;SDS011;9989;48.962;9.182;2023-05-24T00:59:16;8.90;;;4.50;;
19679;SDS011;9989;48.962;9.182;2023-05-24T01:01:42;10.50;;;5.03;;
19679;SDS011;9989;48.962;9.182;2023-05-24T01:04:11;9.67;;;3.87;;
19679;SDS011;9989;48.962;9.182;2023-05-24T01:06:49;12.80;;;4.20;;
19679;SDS011;9989;48.962;9.182;2023-05-24T01:09:33;9.27;;;4.03;;
19679;SDS011;9989;48.962;9.182;2023-05-24T01:17:00;12.07;;;4.53;;
19679;SDS011;9989;48.962;9.182;2023-05-24T01:22:23;12.00;;;4.43;;
19679;SDS011;9989;48.962;9.182;2023-05-24T01:27:31;10.60;;;4.20;;
19679;SDS011;9989;48.962;9.182;2023-05-24T01:29:58;13.10;;;4.40;;
19679;SDS011;9989;48.962;9.182;2023-05-24T01:32:25;11.93;;;4.33;;
19679;SDS011;9989;48.962;9.182;2023-05-24T01:34:51;9.77;;;3.60;;
19679;SDS011;9989;48.962;9.182;2023-05-24T01:37:16;12.80;;;5.07;;
19679;SDS011;9989;48.962;9.182;2023-05-24T01:39:42;10.63;;;4.93;;
19679;SDS011;9989;48.962;9.182;2023-05-24T01:47:10;11.33;;;4.47;;
19679;SDS011;9989;48.962;9.182;2023-05-24T01:49:41;10.93;;;4.00;;
19679;SDS011;9989;48.962;9.182;2023-05-24T01:52:14;12.37;;;4.60;;
19679;SDS011;9989;48.962;9.182;2023-05-24T01:54:44;12.73;;;4.87;;
19679;SDS011;9989;48.962;9.182;2023-05-24T01:57:14;9.97;;;4.20;;
19679;SDS011;9989;48.962;9.182;2023-05-24T01:59:42;11.60;;;4.23;;
19679;SDS011;9989;48.962;9.182;2023-05-24T02:02:09;8.77;;;4.23;;
19679;SDS011;9989;48.962;9.182;2023-05-24T02:04:36;12.60;;;5.10;;
19679;SDS011;9989;48.962;9.182;2023-05-24T02:07:01;11.43;;;5.23;;
19679;SDS011;9989;48.962;9.182;2023-05-24T02:09:27;10.43;;;4.67;;
19679;SDS011;9989;48.962;9.182;2023-05-24T02:11:53;12.43;;;4.70;;
19679;SDS011;9989;48.962;9.182;2023-05-24T02:14:18;8.93;;;4.40;;
19679;SDS011;9989;48.962;9.182;2023-05-24T02:16:44;11.80;;;4.80;;
19679;SDS011;9989;48.962;9.182;2023-05-24T02:19:13;10.63;;;4.33;;
19679;SDS011;9989;48.962;9.182;2023-05-24T02:21:39;9.47;;;4.30;;
19679;SDS011;9989;48.962;9.182;2023-05-24T02:24:05;13.43;;;5.57;;
19679;SDS011;9989;48.962;9.182;2023-05-24T02:26:31;13.00;;;4.60;;
19679;SDS011;9989;48.962;9.182;2023-05-24T02:28:57;11.97;;;5.23;;
19679;SDS011;9989;48.962;9.182;2023-05-24T02:31:23;9.67;;;4.50;;
19679;SDS011;9989;48.962;9.182;2023-05-24T02:33:52;10.47;;;4.33;;
19679;SDS011;9989;48.962;9.182;2023-05-24T02:36:19;11.67;;;4.70;;
19679;SDS011;9989;48.962;9.182;2023-05-24T02:38:47;12.80;;;4.33;;
19679;SDS011;9989;48.962;9.182;2023-05-24T02:41:13;10.60;;;5.00;;
19679;SDS011;9989;48.962;9.182;2023-05-24T02:43:42;9.37;;;4.63;;
19679;SDS011;9989;48.962;9.182;2023-05-24T02:46:08;11.40;;;5.40;;
19679;SDS011;9989;48.962;9.182;2023-05-24T02:48:33;11.97;;;4.90;;
19679;SDS011;9989;48.962;9.182;2023-05-24T02:51:00;10.07;;;4.53;;
19679;SDS011;9989;48.962;9.182;2023-05-24T02:53:27;11.30;;;5.27;;
19679;SDS011;9989;48.962;9.182;2023-05-24T02:55:53;10.53;;;4.63;;
19679;SDS011;9989;48.962;9.182;2023-05-24T02:58:19;19.47;;;5.40;;
19679;SDS011;9989;48.962;9.182;2023-05-24T03:00:44;10.30;;;4.83;;
19679;SDS011;9989;48.962;9.182;2023-05-24T03:03:10;9.90;;;4.47;;
19679;SDS011;9989;48.962;9.182;2023-05-24T03:05:36;10.63;;;4.80;;
19679;SDS011;9989;48.962;9.182;2023-05-24T03:08:02;11.63;;;4.80;;
19679;SDS011;9989;48.962;9.182;2023-05-24T03:10:28;10.93;;;4.93;;
19679;SDS011;9989;48.962;9.182;2023-05-24T03:12:53;12.30;;;5.20;;
19679;SDS011;9989;48.962;9.182;2023-05-24T03:15:19;11.30;;;4.83;;
19679;SDS011;9989;48.962;9.182;2023-05-24T03:17:45;12.67;;;4.53;;
19679;SDS011;9989;48.962;9.182;2023-05-24T03:20:10;11.47;;;4.87;;
19679;SDS011;9989;48.962;9.182;2023-05-24T03:22:36;13.57;;;5.53;;
19679;SDS011;9989;48.962;9.182;2023-05-24T03:25:02;14.33;;;5.73;;
19679;SDS011;9989;48.962;9.182;2023-05-24T03:27:28;13.60;;;5.33;;
19679;SDS011;9989;48.962;9.182;2023-05-24T03:29:54;13.77;;;4.67;;
19679;SDS011;9989;48.962;9.182;2023-05-24T03:32:19;10.10;;;4.53;;
19679;SDS011;9989;48.962;9.182;2023-05-24T03:34:45;11.77;;;4.93;;
19679;SDS011;9989;48.962;9.182;2023-05-24T03:37:10;10.53;;;4.70;;
19679;SDS011;9989;48.962;9.182;2023-05-24T03:39:36;10.07;;;5.10;;
19679;SDS011;9989;48.962;9.182;2023-05-24T03:42:02;12.93;;;5.30;;
19679;SDS011;9989;48.962;9.182;2023-05-24T03:44:27;14.03;;;4.87;;
19679;SDS011;9989;48.962;9.182;2023-05-24T03:46:53;12.50;;;5.67;;
19679;SDS011;9989;48.962;9.182;2023-05-24T03:49:18;11.20;;;5.07;;
19679;SDS011;9989;48.962;9.182;2023-05-24T03:51:44;12.63;;;4.83;;
19679;SDS011;9989;48.962;9.182;2023-05-24T03:54:10;10.83;;;4.40;;
19679;SDS011;9989;48.962;9.182;2023-05-24T03:56:35;10.87;;;4.77;;
19679;SDS011;9989;48.962;9.182;2023-05-24T03:59:01;11.80;;;4.90;;
19679;SDS011;9989;48.962;9.182;2023-05-24T04:01:28;14.10;;;5.20;;
19679;SDS011;9989;48.962;9.182;2023-05-24T04:03:55;12.47;;;4.70;;
19679;SDS011;9989;48.962;9.182;2023-05-24T04:06:22;13.60;;;5.47;;
19679;SDS011;9989;48.962;9.182;2023-05-24T04:08:53;12.57;;;5.37;;
19679;SDS011;9989;48.962;9.182;2023-05-24T04:11:22;12.27;;;4.97;;
19679;SDS011;9989;48.962;9.182;2023-05-24T04:13:52;15.27;;;4.97;;
19679;SDS011;9989;48.962;9.182;2023-05-24T04:16:19;12.63;;;5.50;;
19679;SDS011;9989;48.962;9.182;2023-05-24T04:18:48;13.87;;;5.67;;
19679;SDS011;9989;48.962;9.182;2023-05-24T04:21:14;15.20;;;5.60;;
19679;SDS011;9989;48.962;9.182;2023-05-24T04:23:40;12.27;;;4.77;;
19679;SDS011;9989;48.962;9.182;2023-05-24T04:26:06;9.27;;;4.30;;
19679;SDS011;9989;48.962;9.182;2023-05-24T04:28:34;13.20;;;5.33;;
19679;SDS011;9989;48.962;9.182;2023-05-24T04:31:00;12.97;;;5.27;;
19679;SDS011;9989;48.962;9.182;2023-05-24T04:33:26;12.90;;;5.40;;
19679;SDS011;9989;48.962;9.182;2023-05-24T04:35:52;12.17;;;5.50;;
19679;SDS011;9989;48.962;9.182;2023-05-24T04:38:18;18.00;;;5.67;;
19679;SDS011;9989;48.962;9.182;2023-05-24T04:40:43;12.97;;;4.87;;
19679;SDS011;9989;48.962;9.182;2023-05-24T04:43:09;18.93;;;4.87;;
19679;SDS011;9989;48.962;9.182;2023-05-24T04:45:36;12.53;;;4.90;;
19679;SDS011;9989;48.962;9.182;2023-05-24T04:48:02;12.80;;;5.23;;
19679;SDS011;9989;48.962;9.182;2023-05-24T04:50:27;14.10;;;5.00;;
19679;SDS011;9989;48.962;9.182;2023-05-24T04:52:53;11.77;;;4.13;;
19679;SDS011;9989;48.962;9.182;2023-05-24T04:55:19;11.07;;;5.13;;
19679;SDS011;9989;48.962;9.182;2023-05-24T04:57:45;7.97;;;3.93;;
19679;SDS011;9989;48.962;9.182;2023-05-24T05:00:11;11.17;;;4.50;;
19679;SDS011;9989;48.962;9.182;2023-05-24T05:02:37;13.83;;;5.30;;
19679;SDS011;9989;48.962;9.182;2023-05-24T05:05:02;12.90;;;4.87;;
19679;SDS011;9989;48.962;9.182;2023-05-24T05:07:28;9.80;;;4.70;;
19679;SDS011;9989;48.962;9.182;2023-05-24T05:09:54;13.53;;;4.97;;
19679;SDS011;9989;48.962;9.182;2023-05-24T05:12:20;11.47;;;5.20;;
19679;SDS011;9989;48.962;9.182;2023-05-24T05:14:45;12.30;;;4.33;;
19679;SDS011;9989;48.962;9.182;2023-05-24T05:17:11;9.83;;;4.67;;
19679;SDS011;9989;48.962;9.182;2023-05-24T05:19:37;12.13;;;4.97;;
19679;SDS011;9989;48.962;9.182;2023-05-24T05:22:03;16.83;;;5.17;;
19679;SDS011;9989;48.962;9.182;2023-05-24T05:24:28;14.40;;;5.23;;
19679;SDS011;9989;48.962;9.182;2023-05-24T05:26:54;12.60;;;4.90;;
19679;SDS011;9989;48.962;9.182;2023-05-24T05:29:19;11.47;;;4.83;;
19679;SDS011;9989;48.962;9.182;2023-05-24T05:31:45;10.20;;;4.60;;
19679;SDS011;9989;48.962;9.182;2023-05-24T05:34:11;12.20;;;4.80;;
19679;SDS011;9989;48.962;9.182;2023-05-24T05:36:37;9.27;;;3.90;;
19679;SDS011;9989;48.962;9.182;2023-05-24T05:39:05;12.83;;;4.33;;
19679;SDS011;9989;48.962;9.182;2023-05-24T05:41:33;13.03;;;4.30;;
19679;SDS011;9989;48.962;9.182;2023-05-24T05:44:10;16.60;;;5.37;;
19679;SDS011;9989;48.962;9.182;2023-05-24T05:46:37;10.93;;;4.50;;
19679;SDS011;9989;48.962;9.182;2023-05-24T05:49:03;9.97;;;4.80;;
19679;SDS011;9989;48.962;9.182;2023-05-24T05:51:28;15.03;;;5.17;;
19679;SDS011;9989;48.962;9.182;2023-05-24T05:53:54;10.63;;;4.37;;
19679;SDS011;9989;48.962;9.182;2023-05-24T05:56:20;10.93;;;4.47;;
19679;SDS011;9989;48.962;9.182;2023-05-24T05:58:45;9.43;;;4.17;;
19679;SDS011;9989;48.962;9.182;2023-05-24T06:01:11;11.13;;;4.40;;
19679;SDS011;9989;48.962;9.182;2023-05-24T06:03:36;11.77;;;4.80;;
19679;SDS011;9989;48.962;9.182;2023-05-24T06:06:02;12.07;;;4.97;;
19679;SDS011;9989;48.962;9.182;2023-05-24T06:08:28;10.20;;;4.80;;
19679;SDS011;9989;48.962;9.182;2023-05-24T06:10:58;8.73;;;4.50;;
19679;SDS011;9989;48.962;9.182;2023-05-24T06:13:27;12.90;;;4.70;;
19679;SDS011;9989;48.962;9.182;2023-05-24T06:15:55;10.50;;;4.73;;
19679;SDS011;9989;48.962;9.182;2023-05-24T06:18:20;10.00;;;4.30;;
19679;SDS011;9989;48.962;9.182;2023-05-24T06:20:46;15.63;;;5.03;;
19679;SDS011;9989;48.962;9.182;2023-05-24T06:23:13;13.40;;;5.50;;
19679;SDS011;9989;48.962;9.182;2023-05-24T06:25:38;10.37;;;4.63;;
19679;SDS011;9989;48.962;9.182;2023-05-24T06:28:04;10.70;;;4.50;;
19679;SDS011;9989;48.962;9.182;2023-05-24T06:30:30;13.30;;;4.67;;
19679;SDS011;9989;48.962;9.182;2023-05-24T06:32:57;11.77;;;4.47;;
19679;SDS011;9989;48.962;9.182;2023-05-24T06:35:23;8.87;;;4.27;;
19679;SDS011;9989;48.962;9.182;2023-05-24T06:37:48;13.27;;;5.97;;
19679;SDS011;9989;48.962;9.182;2023-05-24T06:40:14;13.33;;;5.27;;
19679;SDS011;9989;48.962;9.182;2023-05-24T06:42:40;15.10;;;5.27;;
19679;SDS011;9989;48.962;9.182;2023-05-24T06:45:05;17.00;;;5.20;;
19679;SDS011;9989;48.962;9.182;2023-05-24T06:47:32;16.60;;;5.03;;
19679;SDS011;9989;48.962;9.182;2023-05-24T06:49:57;13.37;;;4.70;;
19679;SDS011;9989;48.962;9.182;2023-05-24T06:52:24;12.90;;;4.87;;
19679;SDS011;9989;48.962;9.182;2023-05-24T06:54:50;11.23;;;4.63;;
19679;SDS011;9989;48.962;9.182;2023-05-24T06:57:16;9.70;;;4.50;;
19679;SDS011;9989;48.962;9.182;2023-05-24T06:59:42;16.00;;;4.90;;
19679;SDS011;9989;48.962;9.182;2023-05-24T07:02:07;10.87;;;5.30;;
19679;SDS011;9989;48.962;9.182;2023-05-24T07:04:33;12.13;;;5.00;;
19679;SDS011;9989;48.962;9.182;2023-05-24T07:06:58;12.40;;;5.20;;
19679;SDS011;9989;48.962;9.182;2023-05-24T07:09:24;17.47;;;5.07;;
19679;SDS011;9989;48.962;9.182;2023-05-24T07:11:50;11.10;;;4.17;;
19679;SDS011;9989;48.962;9.182;2023-05-24T07:14:15;10.27;;;4.43;;
19679;SDS011;9989;48.962;9.182;2023-05-24T07:16:41;15.03;;;5.23;;
19679;SDS011;9989;48.962;9.182;2023-05-24T07:19:06;11.70;;;4.67;;
19679;SDS011;9989;48.962;9.182;2023-05-24T07:21:32;13.10;;;5.10;;
19679;SDS011;9989;48.962;9.182;2023-05-24T07:23:57;12.10;;;4.73;;
19679;SDS011;9989;48.962;9.182;2023-05-24T07:26:23;13.37;;;4.27;;
19679;SDS011;9989;48.962;9.182;2023-05-24T07:28:48;10.43;;;4.93;;
19679;SDS011;9989;48.962;9.182;2023-05-24T07:31:14;11.47;;;4.50;;
19679;SDS011;9989;48.962;9.182;2023-05-24T07:33:40;12.97;;;4.83;;
19679;SDS011;9989;48.962;9.182;2023-05-24T07:36:06;12.53;;;4.40;;
19679;SDS011;9989;48.962;9.182;2023-05-24T07:38:32;12.37;;;4.50;;
19679;SDS011;9989;48.962;9.182;2023-05-24T07:40:59;10.83;;;4.30;;
19679;SDS011;9989;48.962;9.182;2023-05-24T07:43:26;15.00;;;5.13;;
19679;SDS011;9989;48.962;9.182;2023-05-24T07:45:52;12.13;;;4.67;;
19679;SDS011;9989;48.962;9.182;2023-05-24T07:48:18;17.07;;;5.57;;
19679;SDS011;9989;48.962;9.182;2023-05-24T07:50:45;12.03;;;5.50;;
19679;SDS011;9989;48.962;9.182;2023-05-24T07:53:13;12.07;;;5.03;;
19679;SDS011;9989;48.962;9.182;2023-05-24T07:55:41;14.87;;;4.90;;
19679;SDS011;9989;48.962;9.182;2023-05-24T07:58:08;16.27;;;5.37;;
19679;SDS011;9989;48.962;9.182;2023-05-24T08:00:34;16.97;;;5.10;;
19679;SDS011;9989;48.962;9.182;2023-05-24T08:03:00;13.57;;;5.33;;
19679;SDS011;9989;48.962;9.182;2023-05-24T08:05:29;13.53;;;5.20;;
19679;SDS011;9989;48.962;9.182;2023-05-24T08:07:55;11.33;;;5.03;;
19679;SDS011;9989;48.962;9.182;2023-05-24T08:10:21;11.57;;;5.03;;
19679;SDS011;9989;48.962;9.182;2023-05-24T08:12:47;16.23;;;4.83;;
19679;SDS011;9989;48.962;9.182;2023-05-24T08:15:15;14.50;;;4.67;;
19679;SDS011;9989;48.962;9.182;2023-05-24T08:17:41;10.37;;;4.80;;
19679;SDS011;9989;48.962;9.182;2023-05-24T08:20:07;12.77;;;5.33;;
19679;SDS011;9989;48.962;9.182;2023-05-24T08:22:42;13.60;;;5.40;;
19679;SDS011;9989;48.962;9.182;2023-05-24T08:25:08;14.07;;;4.63;;
19679;SDS011;9989;48.962;9.182;2023-05-24T08:27:35;15.00;;;5.70;;
19679;SDS011;9989;48.962;9.182;2023-05-24T08:30:01;15.50;;;6.40;;
19679;SDS011;9989;48.962;9.182;2023-05-24T08:32:28;11.97;;;4.27;;
19679;SDS011;9989;48.962;9.182;2023-05-24T08:34:53;10.83;;;4.27;;
19679;SDS011;9989;48.962;9.182;2023-05-24T08:37:20;13.77;;;4.90;;
19679;SDS011;9989;48.962;9.182;2023-05-24T08:39:46;13.27;;;5.17;;
19679;SDS011;9989;48.962;9.182;2023-05-24T08:42:12;16.80;;;6.13;;
19679;SDS011;9989;48.962;9.182;2023-05-24T08:44:52;11.70;;;5.40;;
19679;SDS011;9989;48.962;9.182;2023-05-24T08:47:22;12.40;;;4.67;;
19679;SDS011;9989;48.962;9.182;2023-05-24T08:49:49;16.30;;;5.20;;
19679;SDS011;9989;48.962;9.182;2023-05-24T08:52:15;14.13;;;5.10;;
19679;SDS011;9989;48.962;9.182;2023-05-24T08:54:42;14.90;;;5.30;;
19679;SDS011;9989;48.962;9.182;2023-05-24T08:57:08;15.80;;;5.57;;
19679;SDS011;9989;48.962;9.182;2023-05-24T08:59:36;13.03;;;4.33;;
19679;SDS011;9989;48.962;9.182;2023-05-24T09:02:04;11.23;;;4.57;;
19679;SDS011;9989;48.962;9.182;2023-05-24T09:04:30;13.50;;;4.77;;
19679;SDS011;9989;48.962;9.182;2023-05-24T09:06:56;12.30;;;5.03;;
19679;SDS011;9989;48.962;9.182;2023-05-24T09:09:22;13.83;;;4.10;;
19679;SDS011;9989;48.962;9.182;2023-05-24T09:11:51;11.17;;;4.70;;
19679;SDS011;9989;48.962;9.182;2023-05-24T09:14:20;11.67;;;4.77;;
19679;SDS011;9989;48.962;9.182;2023-05-24T09:16:46;14.37;;;4.80;;
19679;SDS011;9989;48.962;9.182;2023-05-24T09:19:11;14.37;;;5.23;;
19679;SDS011;9989;48.962;9.182;2023-05-24T09:21:38;18.00;;;6.20;;
19679;SDS011;9989;48.962;9.182;2023-05-24T09:24:07;12.30;;;5.43;;
19679;SDS011;9989;48.962;9.182;2023-05-24T09:26:34;9.80;;;4.07;;
19679;SDS011;9989;48.962;9.182;2023-05-24T09:29:01;13.27;;;5.50;;
19679;SDS011;9989;48.962;9.182;2023-05-24T09:31:35;12.30;;;4.83;;
19679;SDS011;9989;48.962;9.182;2023-05-24T09:34:02;15.33;;;5.13;;
19679;SDS011;9989;48.962;9.182;2023-05-24T09:36:33;11.67;;;4.47;;
19679;SDS011;9989;48.962;9.182;2023-05-24T09:39:07;10.73;;;4.20;;
19679;SDS011;9989;48.962;9.182;2023-05-24T09:41:37;15.70;;;5.57;;
19679;SDS011;9989;48.962;9.182;2023-05-24T09:44:03;14.93;;;6.03;;
19679;SDS011;9989;48.962;9.182;2023-05-24T09:46:36;11.07;;;5.10;;
19679;SDS011;9989;48.962;9.182;2023-05-24T09:49:02;10.17;;;4.40;;
19679;SDS011;9989;48.962;9.182;2023-05-24T09:51:28;10.27;;;4.27;;
19679;SDS011;9989;48.962;9.182;2023-05-24T09:53:57;15.97;;;5.63;;
19679;SDS011;9989;48.962;9.182;2023-05-24T09:56:26;17.07;;;6.00;;
19679;SDS011;9989;48.962;9.182;2023-05-24T09:58:52;13.30;;;5.53;;
19679;SDS011;9989;48.962;9.182;2023-05-24T10:01:20;15.50;;;5.80;;
19679;SDS011;9989;48.962;9.182;2023-05-24T10:03:51;14.00;;;5.47;;
19679;SDS011;9989;48.962;9.182;2023-05-24T10:06:18;11.47;;;5.27;;
19679;SDS011;9989;48.962;9.182;2023-05-24T10:08:45;12.60;;;5.37;;
19679;SDS011;9989;48.962;9.182;2023-05-24T10:11:12;10.73;;;4.73;;
19679;SDS011;9989;48.962;9.182;2023-05-24T10:13:38;12.90;;;5.13;;
19679;SDS011;9989;48.962;9.182;2023-05-24T10:16:04;16.20;;;5.77;;
19679;SDS011;9989;48.962;9.182;2023-05-24T10:18:30;13.47;;;4.73;;
19679;SDS011;9989;48.962;9.182;2023-05-24T10:20:55;12.03;;;5.20;;
19679;SDS011;9989;48.962;9.182;2023-05-24T10:23:22;16.57;;;5.53;;
19679;SDS011;9989;48.962;9.182;2023-05-24T10:26:25;10.97;;;5.57;;
19679;SDS011;9989;48.962;9.182;2023-05-24T10:28:44;15.63;;;5.53;;
19679;SDS011;9989;48.962;9.182;2023-05-24T10:31:17;12.83;;;4.53;;
19679;SDS011;9989;48.962;9.182;2023-05-24T10:33:51;16.70;;;5.47;;
19679;SDS011;9989;48.962;9.182;2023-05-24T10:36:20;12.43;;;5.23;;
19679;SDS011;9989;48.962;9.182;2023-05-24T10:38:47;14.83;;;5.10;;
19679;SDS011;9989;48.962;9.182;2023-05-24T10:41:13;14.33;;;5.10;;
19679;SDS011;9989;48.962;9.182;2023-05-24T10:43:39;11.47;;;5.27;;
19679;SDS011;9989;48.962;9.182;2023-05-24T10:46:09;11.90;;;5.17;;
19679;SDS011;9989;48.962;9.182;2023-05-24T10:48:35;11.20;;;4.57;;
19679;SDS011;9989;48.962;9.182;2023-05-24T10:54:23;17.33;;;5.17;;
19679;SDS011;9989;48.962;9.182;2023-05-24T10:56:51;10.87;;;4.13;;
19679;SDS011;9989;48.962;9.182;2023-05-24T11:04:35;17.43;;;5.73;;
19679;SDS011;9989;48.962;9.182;2023-05-24T11:07:03;11.27;;;4.70;;
19679;SDS011;9989;48.962;9.182;2023-05-24T11:09:30;10.97;;;4.83;;
19679;SDS011;9989;48.962;9.182;2023-05-24T11:12:03;10.67;;;4.23;;
19679;SDS011;9989;48.962;9.182;2023-05-24T11:14:33;17.47;;;5.30;;
19679;SDS011;9989;48.962;9.182;2023-05-24T11:17:03;15.53;;;5.40;;
19679;SDS011;9989;48.962;9.182;2023-05-24T11:19:37;13.53;;;4.63;;
19679;SDS011;9989;48.962;9.182;2023-05-24T11:22:09;11.53;;;5.07;;
19679;SDS011;9989;48.962;9.182;2023-05-24T11:24:39;13.83;;;5.50;;
19679;SDS011;9989;48.962;9.182;2023-05-24T11:27:05;16.37;;;4.93;;
19679;SDS011;9989;48.962;9.182;2023-05-24T11:29:31;11.70;;;4.80;;
19679;SDS011;9989;48.962;9.182;2023-05-24T11:31:58;10.00;;;4.17;;
19679;SDS011;9989;48.962;9.182;2023-05-24T11:34:31;12.20;;;4.97;;
19679;SDS011;9989;48.962;9.182;2023-05-24T11:36:57;10.90;;;4.40;;
19679;SDS011;9989;48.962;9.182;2023-05-24T11:39:30;9.80;;;4.30;;
19679;SDS011;9989;48.962;9.182;2023-05-24T11:41:56;12.77;;;6.03;;
19679;SDS011;9989;48.962;9.182;2023-05-24T11:44:23;9.83;;;4.17;;
19679;SDS011;9989;48.962;9.182;2023-05-24T11:46:55;11.03;;;4.53;;
19679;SDS011;9989;48.962;9.182;2023-05-24T11:49:25;13.23;;;5.37;;
19679;SDS011;9989;48.962;9.182;2023-05-24T11:51:52;11.03;;;4.77;;
19679;SDS011;9989;48.962;9.182;2023-05-24T11:54:18;13.30;;;5.20;;
19679;SDS011;9989;48.962;9.182;2023-05-24T11:56:45;10.80;;;3.70;;
19679;SDS011;9989;48.962;9.182;2023-05-24T11:59:15;15.03;;;4.67;;
19679;SDS011;9989;48.962;9.182;2023-05-24T12:01:44;8.27;;;3.47;;
19679;SDS011;9989;48.962;9.182;2023-05-24T12:04:10;10.67;;;4.27;;
19679;SDS011;9989;48.962;9.182;2023-05-24T12:06:37;9.70;;;4.07;;
19679;SDS011;9989;48.962;9.182;2023-05-24T12:09:05;14.53;;;4.67;;
19679;SDS011;9989;48.962;9.182;2023-05-24T12:11:33;11.00;;;4.00;;
19679;SDS011;9989;48.962;9.182;2023-05-24T12:14:01;7.97;;;3.30;;
19679;SDS011;9989;48.962;9.182;2023-05-24T12:16:27;14.30;;;4.77;;
19679;SDS011;9989;48.962;9.182;2023-05-24T12:18:56;8.83;;;3.57;;
19679;SDS011;9989;48.962;9.182;2023-05-24T12:21:21;9.80;;;3.93;;
19679;SDS011;9989;48.962;9.182;2023-05-24T12:23:47;12.27;;;3.77;;
19679;SDS011;9989;48.962;9.182;2023-05-24T12:26:12;13.23;;;4.73;;
19679;SDS011;9989;48.962;9.182;2023-05-24T12:28:38;13.40;;;5.43;;
19679;SDS011;9989;48.962;9.182;2023-05-24T12:31:04;9.27;;;4.10;;
19679;SDS011;9989;48.962;9.182;2023-05-24T12:33:31;9.17;;;4.10;;
19679;SDS011;9989;48.962;9.182;2023-05-24T12:35:57;9.30;;;4.00;;
19679;SDS011;9989;48.962;9.182;2023-05-24T12:38:23;12.70;;;4.73;;
19679;SDS011;9989;48.962;9.182;2023-05-24T12:40:52;11.43;;;4.83;;
19679;SDS011;9989;48.962;9.182;2023-05-24T12:43:19;12.50;;;4.10;;
19679;SDS011;9989;48.962;9.182;2023-05-24T12:45:45;17.50;;;4.13;;
19679;SDS011;9989;48.962;9.182;2023-05-24T12:48:12;11.47;;;4.63;;
19679;SDS011;9989;48.962;9.182;2023-05-24T12:50:37;14.07;;;4.27;;
19679;SDS011;9989;48.962;9.182;2023-05-24T12:53:03;14.40;;;3.80;;
19679;SDS011;9989;48.962;9.182;2023-05-24T12:55:29;9.80;;;3.37;;
19679;SDS011;9989;48.962;9.182;2023-05-24T12:57:55;9.00;;;3.47;;
19679;SDS011;9989;48.962;9.182;2023-05-24T13:00:23;12.50;;;3.80;;
19679;SDS011;9989;48.962;9.182;2023-05-24T13:02:51;10.03;;;4.20;;
19679;SDS011;9989;48.962;9.182;2023-05-24T13:05:20;8.57;;;3.40;;
19679;SDS011;9989;48.962;9.182;2023-05-24T13:07:46;11.67;;;4.37;;
19679;SDS011;9989;48.962;9.182;2023-05-24T13:10:12;8.47;;;3.73;;
19679;SDS011;9989;48.962;9.182;2023-05-24T13:12:38;8.23;;;3.30;;
19679;SDS011;9989;48.962;9.182;2023-05-24T13:15:04;9.37;;;3.70;;
19679;SDS011;9989;48.962;9.182;2023-05-24T13:17:30;8.33;;;3.00;;
19679;SDS011;9989;48.962;9.182;2023-05-24T13:19:57;6.37;;;2.87;;
19679;SDS011;9989;48.962;9.182;2023-05-24T13:22:23;7.93;;;3.20;;
19679;SDS011;9989;48.962;9.182;2023-05-24T13:24:49;8.77;;;4.07;;
19679;SDS011;9989;48.962;9.182;2023-05-24T13:27:15;18.23;;;4.33;;
19679;SDS011;9989;48.962;9.182;2023-05-24T13:29:40;10.07;;;3.63;;
19679;SDS011;9989;48.962;9.182;2023-05-24T13:32:06;11.47;;;3.20;;
19679;SDS011;9989;48.962;9.182;2023-05-24T13:34:31;13.07;;;3.90;;
19679;SDS011;9989;48.962;9.182;2023-05-24T13:36:57;6.70;;;3.30;;
19679;SDS011;9989;48.962;9.182;2023-05-24T13:39:26;9.30;;;3.23;;
19679;SDS011;9989;48.962;9.182;2023-05-24T13:41:52;9.90;;;3.30;;
19679;SDS011;9989;48.962;9.182;2023-05-24T13:44:17;11.03;;;3.80;;
19679;SDS011;9989;48.962;9.182;2023-05-24T13:46:43;12.43;;;4.50;;
19679;SDS011;9989;48.962;9.182;2023-05-24T13:49:09;10.93;;;3.97;;
19679;SDS011;9989;48.962;9.182;2023-05-24T13:51:35;10.97;;;4.10;;
19679;SDS011;9989;48.962;9.182;2023-05-24T13:54:02;14.30;;;4.20;;
19679;SDS011;9989;48.962;9.182;2023-05-24T13:56:28;11.17;;;4.53;;
19679;SDS011;9989;48.962;9.182;2023-05-24T13:58:56;10.40;;;4.23;;
19679;SDS011;9989;48.962;9.182;2023-05-24T14:01:22;8.90;;;3.30;;
19679;SDS011;9989;48.962;9.182;2023-05-24T14:03:49;11.53;;;4.00;;
19679;SDS011;9989;48.962;9.182;2023-05-24T14:06:15;9.37;;;3.93;;
19679;SDS011;9989;48.962;9.182;2023-05-24T14:08:41;14.30;;;3.47;;
19679;SDS011;9989;48.962;9.182;2023-05-24T14:11:07;9.83;;;3.60;;
19679;SDS011;9989;48.962;9.182;2023-05-24T14:13:33;9.93;;;3.50;;
19679;SDS011;9989;48.962;9.182;2023-05-24T14:15:58;12.13;;;3.70;;
19679;SDS011;9989;48.962;9.182;2023-05-24T14:18:24;13.00;;;3.87;;
19679;SDS011;9989;48.962;9.182;2023-05-24T14:20:50;8.30;;;3.07;;
19679;SDS011;9989;48.962;9.182;2023-05-24T14:23:16;10.37;;;4.00;;
19679;SDS011;9989;48.962;9.182;2023-05-24T14:25:42;10.73;;;3.53;;
19679;SDS011;9989;48.962;9.182;2023-05-24T14:28:10;11.53;;;2.93;;
19679;SDS011;9989;48.962;9.182;2023-05-24T14:30:36;10.00;;;3.50;;
19679;SDS011;9989;48.962;9.182;2023-05-24T14:33:02;9.23;;;3.20;;
19679;SDS011;9989;48.962;9.182;2023-05-24T14:35:30;10.63;;;3.50;;
19679;SDS011;9989;48.962;9.182;2023-05-24T14:38:01;10.43;;;3.00;;
19679;SDS011;9989;48.962;9.182;2023-05-24T14:40:28;9.70;;;3.87;;
19679;SDS011;9989;48.962;9.182;2023-05-24T14:42:53;9.30;;;3.33;;
19679;SDS011;9989;48.962;9.182;2023-05-24T14:45:19;10.07;;;3.40;;
19679;SDS011;9989;48.962;9.182;2023-05-24T14:47:45;12.30;;;4.20;;
19679;SDS011;9989;48.962;9.182;2023-05-24T14:50:11;7.90;;;3.20;;
19679;SDS011;9989;48.962;9.182;2023-05-24T14:52:36;9.60;;;2.90;;
19679;SDS011;9989;48.962;9.182;2023-05-24T14:55:02;12.30;;;3.47;;
19679;SDS011;9989;48.962;9.182;2023-05-24T14:57:28;14.00;;;4.10;;
19679;SDS011;9989;48.962;9.182;2023-05-24T14:59:54;10.73;;;4.13;;
19679;SDS011;9989;48.962;9.182;2023-05-24T15:02:20;10.63;;;3.27;;
19679;SDS011;9989;48.962;9.182;2023-05-24T15:04:46;8.17;;;3.40;;
19679;SDS011;9989;48.962;9.182;2023-05-24T15:07:11;9.13;;;3.00;;
19679;SDS011;9989;48.962;9.182;2023-05-24T15:09:37;8.07;;;2.97;;
19679;SDS011;9989;48.962;9.182;2023-05-24T15:12:03;8.97;;;3.20;;